createdAt,value
2023-04-20T00:01:04.057Z,99.90
2023-04-20T00:06:09.360Z,99.90
2023-04-20T00:11:14.394Z,99.90
2023-04-20T00:16:18.927Z,99.90
2023-04-20T00:21:24.259Z,99.90
2023-04-20T00:26:30.858Z,99.90
2023-04-20T00:31:35.750Z,99.90
2023-04-20T00:36:40.492Z,99.90
2023-04-20T00:41:46.255Z,99.90
2023-04-20T00:46:53.911Z,99.90
2023-04-20T00:51:59.531Z,99.90
2023-04-20T00:57:05.755Z,99.90
2023-04-20T01:02:12.103Z,99.90
2023-04-20T01:07:19.153Z,99.90
2023-04-20T01:12:27.416Z,99.90
2023-04-20T01:17:30.748Z,99.90
2023-04-20T01:22:43.782Z,99.90
2023-04-20T01:27:48.746Z,99.90
2023-04-20T01:32:52.344Z,99.90
2023-04-20T01:37:57.410Z,99.90
2023-04-20T01:43:01.060Z,99.90
2023-04-20T01:48:04.906Z,99.90
2023-04-20T01:53:11.158Z,99.90
2023-04-20T01:58:15.215Z,99.90
2023-04-20T02:03:18.771Z,99.90
2023-04-20T02:08:25.584Z,99.90
2023-04-20T02:13:28.931Z,99.90
2023-04-20T02:18:33.043Z,99.90
2023-04-20T02:23:37.989Z,99.90
2023-04-20T02:28:41.764Z,99.90
2023-04-20T02:33:45.002Z,99.90
2023-04-20T02:38:49.637Z,99.90
2023-04-20T02:43:53.139Z,99.90
2023-04-20T02:48:57.053Z,99.90
2023-04-20T02:54:03.657Z,99.90
2023-04-20T02:59:09.376Z,99.90
2023-04-20T03:04:21.101Z,99.90
2023-04-20T03:09:50.475Z,99.90
2023-04-20T03:15:23.878Z,99.90
2023-04-20T03:20:40.308Z,99.90
2023-04-20T03:25:46.362Z,99.90
2023-04-20T03:31:01.711Z,99.90
2023-04-20T03:36:09.397Z,99.90
2023-04-20T03:41:14.941Z,99.90
2023-04-20T03:46:19.514Z,99.90
2023-04-20T03:51:23.778Z,99.90
2023-04-20T03:56:28.809Z,99.90
2023-04-20T04:01:32.358Z,99.90
2023-04-20T04:06:36.200Z,99.90
2023-04-20T04:11:41.134Z,99.90
2023-04-20T04:16:45.309Z,99.90
2023-04-20T04:21:50.373Z,99.90
2023-04-20T04:26:56.717Z,99.90
2023-04-20T04:32:01.701Z,99.90
2023-04-20T04:37:05.457Z,99.90
2023-04-20T04:42:19.037Z,99.90
2023-04-20T04:47:23.809Z,99.90
2023-04-20T04:52:29.010Z,99.90
2023-04-20T04:57:34.152Z,99.90
2023-04-20T05:02:38.149Z,99.90
2023-04-20T05:07:41.684Z,99.90
2023-04-20T05:12:47.255Z,99.90
2023-04-20T05:17:51.307Z,99.90
2023-04-20T05:22:55.197Z,99.90
2023-04-20T05:28:01.134Z,99.90
2023-04-20T05:33:04.862Z,99.90
2023-04-20T05:38:09.028Z,99.90
2023-04-20T05:43:17.545Z,99.90
2023-04-20T05:48:21.650Z,99.90
2023-04-20T05:53:25.645Z,99.90
2023-04-20T05:58:33.104Z,99.90
2023-04-20T06:03:36.794Z,99.90
2023-04-20T06:08:40.563Z,99.90
2023-04-20T06:13:45.846Z,99.90
2023-04-20T06:18:50.468Z,99.90
2023-04-20T06:23:55.455Z,99.90
2023-04-20T06:29:01.302Z,99.90
2023-04-20T06:34:05.049Z,99.90
2023-04-20T06:39:09.359Z,99.90
2023-04-20T06:44:14.616Z,99.90
2023-04-20T06:49:18.544Z,99.90
2023-04-20T06:54:25.524Z,99.90
2023-04-20T06:59:30.804Z,99.90
2023-04-20T07:04:34.528Z,99.90
2023-04-20T07:09:41.257Z,99.90
2023-04-20T07:14:52.451Z,99.90
2023-04-20T07:19:56.555Z,99.90
2023-04-20T07:25:01.545Z,99.90
2023-04-20T07:30:09.001Z,99.90
2023-04-20T07:35:13.573Z,99.90
2023-04-20T07:40:18.016Z,99.90
2023-04-20T07:45:24.456Z,99.90
2023-04-20T07:50:28.400Z,99.90
2023-04-20T07:55:32.333Z,99.90
2023-04-20T08:00:37.576Z,99.90
2023-04-20T08:05:41.497Z,99.90
2023-04-20T08:10:45.099Z,99.90
2023-04-20T08:15:49.838Z,99.90
2023-04-20T08:20:53.623Z,99.90
2023-04-20T08:25:58.038Z,99.90
2023-04-20T08:31:04.386Z,99.90
2023-04-20T08:36:08.746Z,99.90
2023-04-20T08:41:15.893Z,99.90
2023-04-20T08:46:21.673Z,99.90
2023-04-20T08:51:25.619Z,99.90
2023-04-20T08:56:34.989Z,99.90
2023-04-20T09:01:42.486Z,99.90
2023-04-20T09:06:46.859Z,99.90
2023-04-20T09:12:02.968Z,99.90
2023-04-20T09:17:08.502Z,99.90
2023-04-20T09:22:12.018Z,99.90
2023-04-20T09:27:17.130Z,99.90
2023-04-20T09:32:24.107Z,99.90
2023-04-20T09:37:28.388Z,99.90
2023-04-20T09:42:34.096Z,99.90
2023-04-20T09:47:43.481Z,99.90
2023-04-20T09:52:51.718Z,99.90
2023-04-20T09:57:56.589Z,99.90
2023-04-20T10:03:02.097Z,99.90
2023-04-20T10:08:06.982Z,99.90
2023-04-20T10:13:10.441Z,99.90
2023-04-20T10:18:20.427Z,99.90
2023-04-20T10:23:24.350Z,99.90
2023-04-20T10:28:39.770Z,99.90
2023-04-20T10:33:52.770Z,99.90
2023-04-20T10:38:56.692Z,99.90
2023-04-20T10:44:10.427Z,99.90
2023-04-20T10:49:15.117Z,99.90
2023-04-20T10:54:19.540Z,99.90
2023-04-20T10:59:25.072Z,99.90
2023-04-20T11:04:34.637Z,99.90
2023-04-20T11:09:42.458Z,99.90
2023-04-20T11:14:53.600Z,99.90
2023-04-20T11:20:09.259Z,99.90
2023-04-20T11:25:13.385Z,99.90
2023-04-20T11:30:16.842Z,99.90
2023-04-20T11:35:21.691Z,99.90
2023-04-20T11:40:26.120Z,99.90
2023-04-20T11:45:35.723Z,99.90
2023-04-20T11:50:42.554Z,99.90
2023-04-20T11:55:47.030Z,99.90
2023-04-20T12:00:50.697Z,99.90
2023-04-20T12:05:55.496Z,99.90
2023-04-20T12:11:00.016Z,99.90
2023-04-20T12:16:03.330Z,99.90
2023-04-20T12:21:08.356Z,99.90
2023-04-20T12:26:11.931Z,99.90
2023-04-20T12:31:15.488Z,99.90
2023-04-20T12:36:20.331Z,99.90
2023-04-20T12:41:24.300Z,99.70
2023-04-20T12:46:29.170Z,97.60
2023-04-20T12:51:33.823Z,98.60
2023-04-20T12:56:37.759Z,98.30
2023-04-20T13:01:41.235Z,97.80
2023-04-20T13:06:46.024Z,97.70
2023-04-20T13:11:49.430Z,99.20
2023-04-20T13:16:55.213Z,95.90
2023-04-20T13:22:00.302Z,95.20
2023-04-20T13:27:04.546Z,96.50
2023-04-20T13:32:08.174Z,97.10
2023-04-20T13:37:13.648Z,95.60
2023-04-20T13:42:17.004Z,96.40
2023-04-20T13:47:20.567Z,95.70
2023-04-20T13:52:25.400Z,95.10
2023-04-20T13:57:31.012Z,91.60
2023-04-20T14:02:34.555Z,90.60
2023-04-20T14:07:39.690Z,92.80
2023-04-20T14:12:43.697Z,90.40
2023-04-20T14:17:47.095Z,90.00
2023-04-20T14:22:51.907Z,89.10
2023-04-20T14:27:55.534Z,86.80
2023-04-20T14:33:00.685Z,90.60
2023-04-20T14:38:05.465Z,87.10
2023-04-20T14:43:09.257Z,85.20
2023-04-20T14:48:12.922Z,87.10
2023-04-20T14:53:17.850Z,84.00
2023-04-20T14:58:21.391Z,84.30
2023-04-20T15:03:24.952Z,87.70
2023-04-20T15:08:30.719Z,90.00
2023-04-20T15:13:34.291Z,92.00
2023-04-20T15:18:37.516Z,93.10
2023-04-20T15:23:42.771Z,94.10
2023-04-20T15:28:46.275Z,94.00
2023-04-20T15:33:50.343Z,94.50
2023-04-20T15:38:57.994Z,94.80
2023-04-20T15:44:01.390Z,94.80
2023-04-20T15:49:04.690Z,95.20
2023-04-20T15:54:09.617Z,95.60
2023-04-20T15:59:12.816Z,95.00
2023-04-20T16:04:17.489Z,94.70
2023-04-20T16:09:23.771Z,95.20
2023-04-20T16:14:27.442Z,95.80
2023-04-20T16:19:31.825Z,95.10
2023-04-20T16:24:36.464Z,94.60
2023-04-20T16:29:39.703Z,93.20
2023-04-20T16:34:42.881Z,93.00
2023-04-20T16:39:47.689Z,93.20
2023-04-20T16:44:51.036Z,93.70
2023-04-20T16:49:54.244Z,93.90
2023-04-20T16:54:58.898Z,93.70
2023-04-20T17:00:02.536Z,94.40
2023-04-20T17:05:07.360Z,94.10
2023-04-20T17:10:13.688Z,93.70
2023-04-20T17:15:16.969Z,94.40
2023-04-20T17:20:21.009Z,94.60
2023-04-20T17:25:26.099Z,95.10
2023-04-20T17:30:29.977Z,95.60
2023-04-20T17:35:34.461Z,95.60
2023-04-20T17:40:41.088Z,96.10
2023-04-20T17:45:44.487Z,96.70
2023-04-20T17:50:48.619Z,98.50
2023-04-20T17:55:53.438Z,98.40
2023-04-20T18:00:57.155Z,99.00
2023-04-20T18:06:00.736Z,99.90
2023-04-20T18:11:06.836Z,99.90
2023-04-20T18:16:10.223Z,99.90
2023-04-20T18:21:14.321Z,99.90
2023-04-20T18:26:20.728Z,99.90
2023-04-20T18:31:24.425Z,99.90
2023-04-20T18:36:28.314Z,99.90
2023-04-20T18:41:32.862Z,99.90
2023-04-20T18:46:36.289Z,99.90
2023-04-20T18:51:39.769Z,99.90
2023-04-20T18:56:44.508Z,99.90
2023-04-20T19:01:48.692Z,99.90
2023-04-20T19:06:52.320Z,99.90
2023-04-20T19:11:58.563Z,99.90
2023-04-20T19:17:03.970Z,99.90
2023-04-20T19:22:07.279Z,99.90
2023-04-20T19:27:12.318Z,99.90
2023-04-20T19:32:15.915Z,99.90
2023-04-20T19:37:19.900Z,99.90
2023-04-20T19:42:24.600Z,99.90
2023-04-20T19:47:28.220Z,99.90
2023-04-20T19:52:34.302Z,99.90
2023-04-20T19:57:39.133Z,99.90
2023-04-20T20:02:42.751Z,99.90
2023-04-20T20:07:46.143Z,99.90
2023-04-20T20:12:50.819Z,99.90
2023-04-20T20:17:55.464Z,99.90
2023-04-20T20:22:59.687Z,99.90
2023-04-20T20:28:04.637Z,99.90
2023-04-20T20:33:08.576Z,99.90
2023-04-20T20:38:12.376Z,99.90
2023-04-20T20:43:18.363Z,99.90
2023-04-20T20:48:24.759Z,99.90
2023-04-20T20:53:28.001Z,99.90
2023-04-20T20:58:32.633Z,99.90
2023-04-20T21:03:36.870Z,99.90
2023-04-20T21:08:40.565Z,99.90
2023-04-20T21:13:45.822Z,99.90
2023-04-20T21:18:48.990Z,99.90
2023-04-20T21:23:52.808Z,99.90
2023-04-20T21:28:57.398Z,99.90
2023-04-20T21:34:00.844Z,99.90
2023-04-20T21:39:04.525Z,99.90
2023-04-20T21:44:09.633Z,99.90
2023-04-20T21:49:12.933Z,99.90
2023-04-20T21:54:16.250Z,99.90
2023-04-20T21:59:21.104Z,99.90
2023-04-20T22:04:27.654Z,99.90
2023-04-20T22:09:31.002Z,99.90
2023-04-20T22:14:35.492Z,99.90
2023-04-20T22:19:38.958Z,99.90
2023-04-20T22:24:42.775Z,99.90
2023-04-20T22:29:47.649Z,99.90
2023-04-20T22:34:51.379Z,99.90
2023-04-20T22:39:54.697Z,99.90
2023-04-20T22:44:59.454Z,99.90
2023-04-20T22:50:03.825Z,99.90
2023-04-20T22:55:08.905Z,99.90
2023-04-20T23:00:14.577Z,99.90
2023-04-20T23:05:20.716Z,99.90
2023-04-20T23:10:28.597Z,99.90
2023-04-20T23:15:33.317Z,99.90
2023-04-20T23:20:37.469Z,99.90
2023-04-20T23:25:40.795Z,99.90
2023-04-20T23:30:46.141Z,99.90
2023-04-20T23:35:49.319Z,99.90
2023-04-20T23:40:52.583Z,99.90
2023-04-20T23:45:57.274Z,99.90
2023-04-20T23:51:00.862Z,99.90
2023-04-20T23:56:05.078Z,99.90
